LFML/MRS METAR and TAF weather

Enter ICAO airport designator
Station Type Date Time Source
LFML METAR 2020/09/28 08:00 UTC NOAA

LFML 280800Z AUTO 32015KT CAVOK 14/08 Q1010 BECMG 32010G32KT


Station Type Date Time Source
LFML Decoded METAR 2020/09/28 08:00 UTC NOAA

Marseille / Marignane, France (LFML) 43-27N 005-14E 36M
Sep 28, 2020 - 04:00 AM EDT / 2020.09.28 0800 UTC
Wind: from the NW (320 degrees) at 17 MPH (15 KT):0
Visibility: greater than 7 mile(s):0
Temperature: 57 F (14 C)
Dew Point: 46 F (8 C)
Relative Humidity: 67%
Pressure (altimeter): 29.83 in. Hg (1010 hPa)
ob: LFML 280800Z AUTO 32015KT CAVOK 14/08 Q1010 BECMG 32010G32KT
cycle: 8

Station Type Date Time Source
LFML TAF 2020/09/28 09:00 UTC NOAA

TAF LFML 280800Z 2809/2915 32015KT CAVOK TX20/2815Z TN11/2906Z
TEMPO 2811/2901 32020G30KT
TEMPO 2905/2911 30005KT

Example: see airport list